sensor_id;sensor_type;location;lat;lon;timestamp;temperature;humidity
17200;DHT22;8716;52.268;20.968;2023-01-16T00:01:29;6.40;99.90
17200;DHT22;8716;52.268;20.968;2023-01-16T00:03:58;6.40;99.90
17200;DHT22;8716;52.268;20.968;2023-01-16T00:06:26;6.40;99.90
17200;DHT22;8716;52.268;20.968;2023-01-16T00:08:54;6.40;99.90
17200;DHT22;8716;52.268;20.968;2023-01-16T00:11:22;6.30;99.90
17200;DHT22;8716;52.268;20.968;2023-01-16T00:13:50;6.40;99.90
17200;DHT22;8716;52.268;20.968;2023-01-16T00:16:21;6.30;99.90
17200;DHT22;8716;52.268;20.968;2023-01-16T00:18:49;6.30;99.90
17200;DHT22;8716;52.268;20.968;2023-01-16T00:21:18;6.30;99.90
17200;DHT22;8716;52.268;20.968;2023-01-16T00:23:47;6.30;99.90
17200;DHT22;8716;52.268;20.968;2023-01-16T00:26:15;6.30;99.90
17200;DHT22;8716;52.268;20.968;2023-01-16T00:28:43;6.20;99.90
17200;DHT22;8716;52.268;20.968;2023-01-16T00:31:14;6.30;99.90
17200;DHT22;8716;52.268;20.968;2023-01-16T00:33:44;6.20;99.90
17200;DHT22;8716;52.268;20.968;2023-01-16T00:36:12;6.20;99.90
17200;DHT22;8716;52.268;20.968;2023-01-16T00:38:40;6.20;99.90
17200;DHT22;8716;52.268;20.968;2023-01-16T00:41:09;6.20;99.90
17200;DHT22;8716;52.268;20.968;2023-01-16T00:43:37;6.20;99.90
17200;DHT22;8716;52.268;20.968;2023-01-16T00:46:05;6.20;99.90
17200;DHT22;8716;52.268;20.968;2023-01-16T00:48:33;6.10;99.90
17200;DHT22;8716;52.268;20.968;2023-01-16T00:51:03;6.10;99.90
17200;DHT22;8716;52.268;20.968;2023-01-16T00:53:31;6.00;99.90
17200;DHT22;8716;52.268;20.968;2023-01-16T00:55:59;6.00;99.90
17200;DHT22;8716;52.268;20.968;2023-01-16T00:58:28;6.00;99.90
17200;DHT22;8716;52.268;20.968;2023-01-16T01:00:56;6.00;99.90
17200;DHT22;8716;52.268;20.968;2023-01-16T01:03:24;6.00;99.90
17200;DHT22;8716;52.268;20.968;2023-01-16T01:05:52;5.90;99.90
17200;DHT22;8716;52.268;20.968;2023-01-16T01:08:22;5.90;99.90
17200;DHT22;8716;52.268;20.968;2023-01-16T01:10:50;5.90;99.90
17200;DHT22;8716;52.268;20.968;2023-01-16T01:13:18;5.80;99.90
17200;DHT22;8716;52.268;20.968;2023-01-16T01:15:47;5.80;99.90
17200;DHT22;8716;52.268;20.968;2023-01-16T01:18:15;5.80;99.90
17200;DHT22;8716;52.268;20.968;2023-01-16T01:20:43;5.80;99.90
17200;DHT22;8716;52.268;20.968;2023-01-16T01:23:11;5.70;99.90
17200;DHT22;8716;52.268;20.968;2023-01-16T01:25:41;5.70;99.90
17200;DHT22;8716;52.268;20.968;2023-01-16T01:28:09;5.60;99.90
17200;DHT22;8716;52.268;20.968;2023-01-16T01:30:37;5.60;99.90
17200;DHT22;8716;52.268;20.968;2023-01-16T01:33:06;5.60;99.90
17200;DHT22;8716;52.268;20.968;2023-01-16T01:35:35;5.60;99.90
17200;DHT22;8716;52.268;20.968;2023-01-16T01:38:04;5.60;99.90
17200;DHT22;8716;52.268;20.968;2023-01-16T01:40:35;5.60;99.90
17200;DHT22;8716;52.268;20.968;2023-01-16T01:43:10;5.60;99.90
17200;DHT22;8716;52.268;20.968;2023-01-16T01:45:43;5.50;99.90
17200;DHT22;8716;52.268;20.968;2023-01-16T01:48:19;5.50;99.90
17200;DHT22;8716;52.268;20.968;2023-01-16T01:50:57;5.50;99.90
17200;DHT22;8716;52.268;20.968;2023-01-16T01:53:33;5.40;99.90
17200;DHT22;8716;52.268;20.968;2023-01-16T01:56:06;5.40;99.90
17200;DHT22;8716;52.268;20.968;2023-01-16T01:58:38;5.40;99.90
17200;DHT22;8716;52.268;20.968;2023-01-16T02:01:12;5.40;99.90
17200;DHT22;8716;52.268;20.968;2023-01-16T02:03:42;5.40;99.90
17200;DHT22;8716;52.268;20.968;2023-01-16T02:06:19;5.30;99.90
17200;DHT22;8716;52.268;20.968;2023-01-16T02:08:49;5.40;99.90
17200;DHT22;8716;52.268;20.968;2023-01-16T02:11:22;5.40;99.90
17200;DHT22;8716;52.268;20.968;2023-01-16T02:13:58;5.30;99.90
17200;DHT22;8716;52.268;20.968;2023-01-16T02:16:28;5.30;99.90
17200;DHT22;8716;52.268;20.968;2023-01-16T02:19:19;5.30;99.90
17200;DHT22;8716;52.268;20.968;2023-01-16T02:25:45;5.20;99.90
17200;DHT22;8716;52.268;20.968;2023-01-16T02:31:31;5.20;99.90
17200;DHT22;8716;52.268;20.968;2023-01-16T02:34:19;5.20;99.90
17200;DHT22;8716;52.268;20.968;2023-01-16T02:36:58;5.10;99.90
17200;DHT22;8716;52.268;20.968;2023-01-16T02:39:36;5.10;99.90
17200;DHT22;8716;52.268;20.968;2023-01-16T02:42:12;5.00;99.90
17200;DHT22;8716;52.268;20.968;2023-01-16T02:44:49;5.00;99.90
17200;DHT22;8716;52.268;20.968;2023-01-16T02:47:25;4.90;99.90
17200;DHT22;8716;52.268;20.968;2023-01-16T02:50:02;4.90;99.90
17200;DHT22;8716;52.268;20.968;2023-01-16T02:52:37;4.90;99.90
17200;DHT22;8716;52.268;20.968;2023-01-16T02:55:12;4.80;99.90
17200;DHT22;8716;52.268;20.968;2023-01-16T02:57:46;4.90;99.90
17200;DHT22;8716;52.268;20.968;2023-01-16T03:00:16;4.80;99.90
17200;DHT22;8716;52.268;20.968;2023-01-16T03:02:47;4.80;99.90
17200;DHT22;8716;52.268;20.968;2023-01-16T03:05:15;4.80;99.90
17200;DHT22;8716;52.268;20.968;2023-01-16T03:08:14;4.70;99.90
17200;DHT22;8716;52.268;20.968;2023-01-16T03:11:15;4.80;99.90
17200;DHT22;8716;52.268;20.968;2023-01-16T03:14:02;4.70;99.90
17200;DHT22;8716;52.268;20.968;2023-01-16T03:16:37;4.70;99.90
17200;DHT22;8716;52.268;20.968;2023-01-16T03:19:20;4.70;99.90
17200;DHT22;8716;52.268;20.968;2023-01-16T03:21:59;4.70;99.90
17200;DHT22;8716;52.268;20.968;2023-01-16T03:24:39;4.60;99.90
17200;DHT22;8716;52.268;20.968;2023-01-16T03:27:19;4.70;99.90
17200;DHT22;8716;52.268;20.968;2023-01-16T03:29:56;4.60;99.90
17200;DHT22;8716;52.268;20.968;2023-01-16T03:32:33;4.60;99.90
17200;DHT22;8716;52.268;20.968;2023-01-16T03:35:07;4.60;99.90
17200;DHT22;8716;52.268;20.968;2023-01-16T03:37:40;4.60;99.90
17200;DHT22;8716;52.268;20.968;2023-01-16T03:40:11;4.50;99.90
17200;DHT22;8716;52.268;20.968;2023-01-16T03:42:43;4.40;99.90
17200;DHT22;8716;52.268;20.968;2023-01-16T03:45:19;4.40;99.90
17200;DHT22;8716;52.268;20.968;2023-01-16T03:47:51;4.40;99.90
17200;DHT22;8716;52.268;20.968;2023-01-16T03:50:24;4.40;99.90
17200;DHT22;8716;52.268;20.968;2023-01-16T03:52:58;4.40;99.90
17200;DHT22;8716;52.268;20.968;2023-01-16T03:55:33;4.40;99.90
17200;DHT22;8716;52.268;20.968;2023-01-16T03:58:05;4.30;99.90
17200;DHT22;8716;52.268;20.968;2023-01-16T04:00:39;4.40;99.90
17200;DHT22;8716;52.268;20.968;2023-01-16T04:03:13;4.30;99.90
17200;DHT22;8716;52.268;20.968;2023-01-16T04:05:49;4.30;99.90
17200;DHT22;8716;52.268;20.968;2023-01-16T04:08:22;4.30;99.90
17200;DHT22;8716;52.268;20.968;2023-01-16T04:10:52;4.20;99.90
17200;DHT22;8716;52.268;20.968;2023-01-16T04:13:24;4.30;99.90
17200;DHT22;8716;52.268;20.968;2023-01-16T04:15:56;4.20;99.90
17200;DHT22;8716;52.268;20.968;2023-01-16T04:18:30;4.20;99.90
17200;DHT22;8716;52.268;20.968;2023-01-16T04:21:03;4.20;99.90
17200;DHT22;8716;52.268;20.968;2023-01-16T04:23:32;4.20;99.90
17200;DHT22;8716;52.268;20.968;2023-01-16T04:26:00;4.20;99.90
17200;DHT22;8716;52.268;20.968;2023-01-16T04:28:28;4.20;99.90
17200;DHT22;8716;52.268;20.968;2023-01-16T04:30:56;4.20;99.90
17200;DHT22;8716;52.268;20.968;2023-01-16T04:33:25;4.20;99.90
17200;DHT22;8716;52.268;20.968;2023-01-16T04:35:53;4.20;99.90
17200;DHT22;8716;52.268;20.968;2023-01-16T04:38:22;4.10;99.90
17200;DHT22;8716;52.268;20.968;2023-01-16T04:40:53;4.10;99.90
17200;DHT22;8716;52.268;20.968;2023-01-16T04:43:21;4.10;99.90
17200;DHT22;8716;52.268;20.968;2023-01-16T04:45:49;4.10;99.90
17200;DHT22;8716;52.268;20.968;2023-01-16T04:48:17;4.10;99.90
17200;DHT22;8716;52.268;20.968;2023-01-16T04:50:47;4.10;99.90
17200;DHT22;8716;52.268;20.968;2023-01-16T04:53:16;4.10;99.90
17200;DHT22;8716;52.268;20.968;2023-01-16T04:55:45;4.10;99.90
17200;DHT22;8716;52.268;20.968;2023-01-16T04:58:13;4.10;99.90
17200;DHT22;8716;52.268;20.968;2023-01-16T05:00:42;4.10;99.90
17200;DHT22;8716;52.268;20.968;2023-01-16T05:03:10;4.10;99.90
17200;DHT22;8716;52.268;20.968;2023-01-16T05:05:42;4.10;99.90
17200;DHT22;8716;52.268;20.968;2023-01-16T05:08:10;4.10;99.90
17200;DHT22;8716;52.268;20.968;2023-01-16T05:10:46;4.00;99.90
17200;DHT22;8716;52.268;20.968;2023-01-16T05:13:14;4.00;99.90
17200;DHT22;8716;52.268;20.968;2023-01-16T05:15:43;4.00;99.90
17200;DHT22;8716;52.268;20.968;2023-01-16T05:18:12;4.00;99.90
17200;DHT22;8716;52.268;20.968;2023-01-16T05:20:40;4.00;99.90
17200;DHT22;8716;52.268;20.968;2023-01-16T05:23:08;4.00;99.90
17200;DHT22;8716;52.268;20.968;2023-01-16T05:25:37;4.00;99.90
17200;DHT22;8716;52.268;20.968;2023-01-16T05:28:10;4.00;99.90
17200;DHT22;8716;52.268;20.968;2023-01-16T05:30:39;3.90;99.90
17200;DHT22;8716;52.268;20.968;2023-01-16T05:33:07;3.90;99.90
17200;DHT22;8716;52.268;20.968;2023-01-16T05:35:35;3.90;99.90
17200;DHT22;8716;52.268;20.968;2023-01-16T05:38:04;3.90;99.90
17200;DHT22;8716;52.268;20.968;2023-01-16T05:40:32;3.90;99.90
17200;DHT22;8716;52.268;20.968;2023-01-16T05:43:00;3.90;99.90
17200;DHT22;8716;52.268;20.968;2023-01-16T05:45:30;3.90;99.90
17200;DHT22;8716;52.268;20.968;2023-01-16T05:47:58;3.90;99.90
17200;DHT22;8716;52.268;20.968;2023-01-16T05:50:27;3.90;99.90
17200;DHT22;8716;52.268;20.968;2023-01-16T05:52:55;3.90;99.90
17200;DHT22;8716;52.268;20.968;2023-01-16T05:55:26;3.90;99.90
17200;DHT22;8716;52.268;20.968;2023-01-16T05:57:54;3.80;99.90
17200;DHT22;8716;52.268;20.968;2023-01-16T06:00:23;3.80;99.90
17200;DHT22;8716;52.268;20.968;2023-01-16T06:02:53;3.80;99.90
17200;DHT22;8716;52.268;20.968;2023-01-16T06:05:21;3.80;99.90
17200;DHT22;8716;52.268;20.968;2023-01-16T06:07:53;3.80;99.90
17200;DHT22;8716;52.268;20.968;2023-01-16T06:10:22;3.80;99.90
17200;DHT22;8716;52.268;20.968;2023-01-16T06:12:50;3.80;99.90
17200;DHT22;8716;52.268;20.968;2023-01-16T06:15:19;3.80;99.90
17200;DHT22;8716;52.268;20.968;2023-01-16T06:17:49;3.80;99.90
17200;DHT22;8716;52.268;20.968;2023-01-16T06:20:22;3.80;99.90
17200;DHT22;8716;52.268;20.968;2023-01-16T06:22:50;3.80;99.90
17200;DHT22;8716;52.268;20.968;2023-01-16T06:25:21;3.80;99.90
17200;DHT22;8716;52.268;20.968;2023-01-16T06:27:49;3.80;99.90
17200;DHT22;8716;52.268;20.968;2023-01-16T06:30:18;3.80;99.90
17200;DHT22;8716;52.268;20.968;2023-01-16T06:32:47;3.80;99.90
17200;DHT22;8716;52.268;20.968;2023-01-16T06:35:18;3.80;99.90
17200;DHT22;8716;52.268;20.968;2023-01-16T06:37:48;3.80;99.90
17200;DHT22;8716;52.268;20.968;2023-01-16T06:40:16;3.80;99.90
17200;DHT22;8716;52.268;20.968;2023-01-16T06:42:45;3.80;99.90
17200;DHT22;8716;52.268;20.968;2023-01-16T06:45:14;3.90;99.90
17200;DHT22;8716;52.268;20.968;2023-01-16T06:47:42;3.90;99.90
17200;DHT22;8716;52.268;20.968;2023-01-16T06:50:10;3.90;99.90
17200;DHT22;8716;52.268;20.968;2023-01-16T06:52:38;3.90;99.90
17200;DHT22;8716;52.268;20.968;2023-01-16T06:55:08;3.90;99.90
17200;DHT22;8716;52.268;20.968;2023-01-16T06:57:37;3.90;99.90
17200;DHT22;8716;52.268;20.968;2023-01-16T07:00:06;3.90;99.90
17200;DHT22;8716;52.268;20.968;2023-01-16T07:02:34;3.90;99.90
17200;DHT22;8716;52.268;20.968;2023-01-16T07:05:09;3.90;99.90
17200;DHT22;8716;52.268;20.968;2023-01-16T07:07:39;3.90;99.90
17200;DHT22;8716;52.268;20.968;2023-01-16T07:10:12;3.90;99.90
17200;DHT22;8716;52.268;20.968;2023-01-16T07:12:40;3.90;99.90
17200;DHT22;8716;52.268;20.968;2023-01-16T07:15:09;3.90;99.90
17200;DHT22;8716;52.268;20.968;2023-01-16T07:17:55;4.00;99.90
17200;DHT22;8716;52.268;20.968;2023-01-16T07:20:41;4.00;99.90
17200;DHT22;8716;52.268;20.968;2023-01-16T07:23:29;4.00;99.90
17200;DHT22;8716;52.268;20.968;2023-01-16T07:26:03;4.10;99.90
17200;DHT22;8716;52.268;20.968;2023-01-16T07:28:33;4.10;99.90
17200;DHT22;8716;52.268;20.968;2023-01-16T07:31:02;4.10;99.90
17200;DHT22;8716;52.268;20.968;2023-01-16T07:33:31;4.10;99.90
17200;DHT22;8716;52.268;20.968;2023-01-16T07:35:59;4.20;99.90
17200;DHT22;8716;52.268;20.968;2023-01-16T07:38:28;4.20;99.90
17200;DHT22;8716;52.268;20.968;2023-01-16T07:40:56;4.20;99.90
17200;DHT22;8716;52.268;20.968;2023-01-16T07:43:25;4.20;99.90
17200;DHT22;8716;52.268;20.968;2023-01-16T07:45:54;4.20;99.90
17200;DHT22;8716;52.268;20.968;2023-01-16T07:48:23;4.30;99.90
17200;DHT22;8716;52.268;20.968;2023-01-16T07:50:52;4.30;99.90
17200;DHT22;8716;52.268;20.968;2023-01-16T07:53:22;4.40;99.90
17200;DHT22;8716;52.268;20.968;2023-01-16T07:55:52;4.40;99.90
17200;DHT22;8716;52.268;20.968;2023-01-16T07:58:21;4.50;99.90
17200;DHT22;8716;52.268;20.968;2023-01-16T08:00:52;4.60;99.90
17200;DHT22;8716;52.268;20.968;2023-01-16T08:03:20;4.60;99.90
17200;DHT22;8716;52.268;20.968;2023-01-16T08:05:49;4.60;99.90
17200;DHT22;8716;52.268;20.968;2023-01-16T08:08:17;4.70;99.90
17200;DHT22;8716;52.268;20.968;2023-01-16T08:10:53;4.80;99.90
17200;DHT22;8716;52.268;20.968;2023-01-16T08:13:21;4.90;99.90
17200;DHT22;8716;52.268;20.968;2023-01-16T08:15:51;5.00;99.90
17200;DHT22;8716;52.268;20.968;2023-01-16T08:18:19;5.00;99.90
17200;DHT22;8716;52.268;20.968;2023-01-16T08:20:50;5.10;99.90
17200;DHT22;8716;52.268;20.968;2023-01-16T08:23:18;5.10;99.90
17200;DHT22;8716;52.268;20.968;2023-01-16T08:25:49;5.20;99.90
17200;DHT22;8716;52.268;20.968;2023-01-16T08:28:19;5.20;99.90
17200;DHT22;8716;52.268;20.968;2023-01-16T08:30:47;5.30;99.90
17200;DHT22;8716;52.268;20.968;2023-01-16T08:33:16;5.30;99.90
17200;DHT22;8716;52.268;20.968;2023-01-16T08:35:45;5.40;99.90
17200;DHT22;8716;52.268;20.968;2023-01-16T08:38:15;5.40;99.90
17200;DHT22;8716;52.268;20.968;2023-01-16T08:40:44;5.40;99.90
17200;DHT22;8716;52.268;20.968;2023-01-16T08:43:13;5.50;99.90
17200;DHT22;8716;52.268;20.968;2023-01-16T08:46:07;5.50;99.90
17200;DHT22;8716;52.268;20.968;2023-01-16T08:49:03;5.60;99.90
17200;DHT22;8716;52.268;20.968;2023-01-16T08:51:50;5.70;99.90
17200;DHT22;8716;52.268;20.968;2023-01-16T08:54:18;5.90;99.90
17200;DHT22;8716;52.268;20.968;2023-01-16T08:56:46;6.00;99.90
17200;DHT22;8716;52.268;20.968;2023-01-16T08:59:14;6.20;99.90
17200;DHT22;8716;52.268;20.968;2023-01-16T09:01:43;6.30;99.90
17200;DHT22;8716;52.268;20.968;2023-01-16T09:04:12;6.50;99.90
17200;DHT22;8716;52.268;20.968;2023-01-16T09:06:41;6.70;99.90
17200;DHT22;8716;52.268;20.968;2023-01-16T09:09:09;6.90;99.90
17200;DHT22;8716;52.268;20.968;2023-01-16T09:11:37;7.10;99.90
17200;DHT22;8716;52.268;20.968;2023-01-16T09:14:23;7.40;99.90
17200;DHT22;8716;52.268;20.968;2023-01-16T09:16:54;7.70;99.90
17200;DHT22;8716;52.268;20.968;2023-01-16T09:19:24;7.90;99.90
17200;DHT22;8716;52.268;20.968;2023-01-16T09:21:52;7.90;99.90
17200;DHT22;8716;52.268;20.968;2023-01-16T09:24:21;8.00;99.90
17200;DHT22;8716;52.268;20.968;2023-01-16T09:26:49;8.00;99.90
17200;DHT22;8716;52.268;20.968;2023-01-16T09:29:19;8.10;99.90
17200;DHT22;8716;52.268;20.968;2023-01-16T09:31:48;8.10;99.90
17200;DHT22;8716;52.268;20.968;2023-01-16T09:34:16;8.10;99.90
17200;DHT22;8716;52.268;20.968;2023-01-16T09:36:45;7.90;99.90
17200;DHT22;8716;52.268;20.968;2023-01-16T09:39:14;7.90;99.90
17200;DHT22;8716;52.268;20.968;2023-01-16T09:41:49;7.80;99.90
17200;DHT22;8716;52.268;20.968;2023-01-16T09:44:40;7.90;99.90
17200;DHT22;8716;52.268;20.968;2023-01-16T09:47:09;8.00;99.90
17200;DHT22;8716;52.268;20.968;2023-01-16T09:49:45;8.10;99.90
17200;DHT22;8716;52.268;20.968;2023-01-16T09:52:19;8.20;99.90
17200;DHT22;8716;52.268;20.968;2023-01-16T09:55:16;8.30;99.90
17200;DHT22;8716;52.268;20.968;2023-01-16T09:58:07;8.60;99.90
17200;DHT22;8716;52.268;20.968;2023-01-16T10:00:56;8.80;99.90
17200;DHT22;8716;52.268;20.968;2023-01-16T10:03:25;9.00;99.90
17200;DHT22;8716;52.268;20.968;2023-01-16T10:05:57;9.00;99.90
17200;DHT22;8716;52.268;20.968;2023-01-16T10:08:31;9.00;99.90
17200;DHT22;8716;52.268;20.968;2023-01-16T10:11:08;9.10;99.90
17200;DHT22;8716;52.268;20.968;2023-01-16T10:13:52;9.30;99.90
17200;DHT22;8716;52.268;20.968;2023-01-16T10:16:32;9.60;99.90
17200;DHT22;8716;52.268;20.968;2023-01-16T10:19:08;9.90;99.90
17200;DHT22;8716;52.268;20.968;2023-01-16T10:21:51;9.90;99.90
17200;DHT22;8716;52.268;20.968;2023-01-16T10:24:39;9.90;99.90
17200;DHT22;8716;52.268;20.968;2023-01-16T10:27:16;9.80;99.90
17200;DHT22;8716;52.268;20.968;2023-01-16T10:29:50;9.70;99.90
17200;DHT22;8716;52.268;20.968;2023-01-16T10:32:26;9.60;99.90
17200;DHT22;8716;52.268;20.968;2023-01-16T10:35:00;9.50;99.90
17200;DHT22;8716;52.268;20.968;2023-01-16T10:37:31;9.40;99.90
17200;DHT22;8716;52.268;20.968;2023-01-16T10:40:11;9.40;99.90
17200;DHT22;8716;52.268;20.968;2023-01-16T10:42:41;9.30;99.90
17200;DHT22;8716;52.268;20.968;2023-01-16T10:45:30;9.30;99.90
17200;DHT22;8716;52.268;20.968;2023-01-16T10:48:19;9.20;99.90
17200;DHT22;8716;52.268;20.968;2023-01-16T10:51:06;9.00;99.90
17200;DHT22;8716;52.268;20.968;2023-01-16T10:53:37;8.90;99.90
17200;DHT22;8716;52.268;20.968;2023-01-16T10:56:07;8.70;99.90
17200;DHT22;8716;52.268;20.968;2023-01-16T10:58:37;8.50;99.90
17200;DHT22;8716;52.268;20.968;2023-01-16T11:01:11;8.40;99.90
17200;DHT22;8716;52.268;20.968;2023-01-16T11:03:41;8.20;99.90
17200;DHT22;8716;52.268;20.968;2023-01-16T11:06:14;8.10;99.90
17200;DHT22;8716;52.268;20.968;2023-01-16T11:08:44;8.00;99.90
17200;DHT22;8716;52.268;20.968;2023-01-16T11:11:16;8.00;99.90
17200;DHT22;8716;52.268;20.968;2023-01-16T11:14:10;7.90;99.90
17200;DHT22;8716;52.268;20.968;2023-01-16T11:17:20;7.90;99.90
17200;DHT22;8716;52.268;20.968;2023-01-16T11:20:12;7.80;99.90
17200;DHT22;8716;52.268;20.968;2023-01-16T11:22:45;7.80;99.90
17200;DHT22;8716;52.268;20.968;2023-01-16T11:25:17;7.70;99.90
17200;DHT22;8716;52.268;20.968;2023-01-16T11:27:49;7.60;99.90
17200;DHT22;8716;52.268;20.968;2023-01-16T11:30:21;7.60;99.90
17200;DHT22;8716;52.268;20.968;2023-01-16T11:32:50;7.60;99.90
17200;DHT22;8716;52.268;20.968;2023-01-16T11:35:27;7.60;99.90
17200;DHT22;8716;52.268;20.968;2023-01-16T11:37:59;7.60;99.90
17200;DHT22;8716;52.268;20.968;2023-01-16T11:40:31;7.60;99.90
17200;DHT22;8716;52.268;20.968;2023-01-16T11:43:12;7.60;99.90
17200;DHT22;8716;52.268;20.968;2023-01-16T11:45:58;7.60;99.90
17200;DHT22;8716;52.268;20.968;2023-01-16T11:48:38;7.50;99.90
17200;DHT22;8716;52.268;20.968;2023-01-16T11:51:11;7.30;99.90
17200;DHT22;8716;52.268;20.968;2023-01-16T11:53:39;7.30;99.90
17200;DHT22;8716;52.268;20.968;2023-01-16T11:56:30;7.30;99.90
17200;DHT22;8716;52.268;20.968;2023-01-16T12:05:36;7.10;99.90
17200;DHT22;8716;52.268;20.968;2023-01-16T12:08:32;7.10;99.90
17200;DHT22;8716;52.268;20.968;2023-01-16T12:11:06;7.10;99.90
17200;DHT22;8716;52.268;20.968;2023-01-16T12:13:41;7.00;99.90
17200;DHT22;8716;52.268;20.968;2023-01-16T12:16:42;7.00;99.90
17200;DHT22;8716;52.268;20.968;2023-01-16T12:22:37;6.80;99.90
17200;DHT22;8716;52.268;20.968;2023-01-16T12:25:21;6.80;99.90
17200;DHT22;8716;52.268;20.968;2023-01-16T12:27:58;6.70;99.90
17200;DHT22;8716;52.268;20.968;2023-01-16T12:30:41;6.70;99.90
17200;DHT22;8716;52.268;20.968;2023-01-16T12:33:25;6.60;99.90
17200;DHT22;8716;52.268;20.968;2023-01-16T12:35:59;6.50;99.90
17200;DHT22;8716;52.268;20.968;2023-01-16T12:38:36;6.50;99.90
17200;DHT22;8716;52.268;20.968;2023-01-16T12:41:16;6.40;99.90
17200;DHT22;8716;52.268;20.968;2023-01-16T12:47:23;6.40;99.90
17200;DHT22;8716;52.268;20.968;2023-01-16T12:50:07;6.30;99.90
17200;DHT22;8716;52.268;20.968;2023-01-16T12:52:52;6.40;99.90
17200;DHT22;8716;52.268;20.968;2023-01-16T12:55:31;6.40;99.90
17200;DHT22;8716;52.268;20.968;2023-01-16T12:58:14;6.40;99.90
17200;DHT22;8716;52.268;20.968;2023-01-16T13:00:47;6.40;99.90
17200;DHT22;8716;52.268;20.968;2023-01-16T13:03:25;6.40;99.90
17200;DHT22;8716;52.268;20.968;2023-01-16T13:05:56;6.30;99.90
17200;DHT22;8716;52.268;20.968;2023-01-16T13:08:29;6.30;99.90
17200;DHT22;8716;52.268;20.968;2023-01-16T13:11:07;6.30;99.90
17200;DHT22;8716;52.268;20.968;2023-01-16T13:13:59;6.30;99.90
17200;DHT22;8716;52.268;20.968;2023-01-16T13:16:31;6.40;99.90
17200;DHT22;8716;52.268;20.968;2023-01-16T13:19:04;6.30;99.90
17200;DHT22;8716;52.268;20.968;2023-01-16T13:21:45;6.30;99.90
17200;DHT22;8716;52.268;20.968;2023-01-16T13:24:22;6.20;99.90
17200;DHT22;8716;52.268;20.968;2023-01-16T13:26:55;6.10;99.90
17200;DHT22;8716;52.268;20.968;2023-01-16T13:29:31;6.10;99.90
17200;DHT22;8716;52.268;20.968;2023-01-16T13:32:08;6.00;99.90
17200;DHT22;8716;52.268;20.968;2023-01-16T13:34:50;6.00;99.90
17200;DHT22;8716;52.268;20.968;2023-01-16T13:37:47;6.00;99.90
17200;DHT22;8716;52.268;20.968;2023-01-16T13:43:38;5.90;99.90
17200;DHT22;8716;52.268;20.968;2023-01-16T13:46:27;5.90;99.90
17200;DHT22;8716;52.268;20.968;2023-01-16T13:48:58;5.90;99.90
17200;DHT22;8716;52.268;20.968;2023-01-16T13:51:27;5.90;99.90
17200;DHT22;8716;52.268;20.968;2023-01-16T13:54:01;5.90;99.90
17200;DHT22;8716;52.268;20.968;2023-01-16T14:05:23;6.00;99.90
17200;DHT22;8716;52.268;20.968;2023-01-16T14:12:20;5.90;99.90
17200;DHT22;8716;52.268;20.968;2023-01-16T14:15:15;5.90;99.90
17200;DHT22;8716;52.268;20.968;2023-01-16T14:18:18;5.90;99.90
17200;DHT22;8716;52.268;20.968;2023-01-16T14:20:52;5.90;99.90
17200;DHT22;8716;52.268;20.968;2023-01-16T15:42:26;5.20;99.90
17200;DHT22;8716;52.268;20.968;2023-01-16T15:50:00;5.20;99.90
17200;DHT22;8716;52.268;20.968;2023-01-16T16:38:58;5.00;99.90
17200;DHT22;8716;52.268;20.968;2023-01-16T16:47:35;4.90;99.90
17200;DHT22;8716;52.268;20.968;2023-01-16T16:50:28;4.90;99.90
17200;DHT22;8716;52.268;20.968;2023-01-16T16:53:04;5.00;99.90
17200;DHT22;8716;52.268;20.968;2023-01-16T16:55:36;5.00;99.90
17200;DHT22;8716;52.268;20.968;2023-01-16T16:58:11;5.00;99.90
17200;DHT22;8716;52.268;20.968;2023-01-16T17:00:41;5.00;99.90
17200;DHT22;8716;52.268;20.968;2023-01-16T17:03:12;5.00;99.90
17200;DHT22;8716;52.268;20.968;2023-01-16T17:05:43;5.00;99.90
17200;DHT22;8716;52.268;20.968;2023-01-16T17:08:18;5.10;99.90
17200;DHT22;8716;52.268;20.968;2023-01-16T17:10:49;5.00;99.90
17200;DHT22;8716;52.268;20.968;2023-01-16T17:13:19;5.00;99.90
17200;DHT22;8716;52.268;20.968;2023-01-16T17:15:51;5.10;99.90
17200;DHT22;8716;52.268;20.968;2023-01-16T17:18:21;5.10;99.90
17200;DHT22;8716;52.268;20.968;2023-01-16T17:20:50;5.10;99.90
17200;DHT22;8716;52.268;20.968;2023-01-16T17:23:20;5.10;99.90
17200;DHT22;8716;52.268;20.968;2023-01-16T17:25:50;5.10;99.90
17200;DHT22;8716;52.268;20.968;2023-01-16T17:28:18;5.10;99.90
17200;DHT22;8716;52.268;20.968;2023-01-16T17:30:46;5.20;99.90
17200;DHT22;8716;52.268;20.968;2023-01-16T17:33:17;5.10;99.90
17200;DHT22;8716;52.268;20.968;2023-01-16T17:35:48;5.10;99.90
17200;DHT22;8716;52.268;20.968;2023-01-16T17:38:37;5.10;99.90
17200;DHT22;8716;52.268;20.968;2023-01-16T17:41:14;5.10;99.90
17200;DHT22;8716;52.268;20.968;2023-01-16T17:43:46;5.10;99.90
17200;DHT22;8716;52.268;20.968;2023-01-16T17:46:31;5.10;99.90
17200;DHT22;8716;52.268;20.968;2023-01-16T17:49:00;5.10;99.90
17200;DHT22;8716;52.268;20.968;2023-01-16T17:51:28;5.20;99.90
17200;DHT22;8716;52.268;20.968;2023-01-16T17:53:58;5.20;99.90
17200;DHT22;8716;52.268;20.968;2023-01-16T17:56:28;5.10;99.90
17200;DHT22;8716;52.268;20.968;2023-01-16T17:58:56;5.20;99.90
17200;DHT22;8716;52.268;20.968;2023-01-16T18:01:31;5.20;99.90
17200;DHT22;8716;52.268;20.968;2023-01-16T18:04:03;5.20;99.90
17200;DHT22;8716;52.268;20.968;2023-01-16T18:06:32;5.20;99.90
17200;DHT22;8716;52.268;20.968;2023-01-16T18:09:01;5.30;99.90
17200;DHT22;8716;52.268;20.968;2023-01-16T18:11:35;5.30;99.90
17200;DHT22;8716;52.268;20.968;2023-01-16T18:14:21;5.20;99.90
17200;DHT22;8716;52.268;20.968;2023-01-16T18:17:09;5.30;99.90
17200;DHT22;8716;52.268;20.968;2023-01-16T18:19:52;5.40;99.90
17200;DHT22;8716;52.268;20.968;2023-01-16T18:22:22;5.40;99.90
17200;DHT22;8716;52.268;20.968;2023-01-16T18:24:51;5.40;99.90
17200;DHT22;8716;52.268;20.968;2023-01-16T18:27:21;5.40;99.90
17200;DHT22;8716;52.268;20.968;2023-01-16T18:29:50;5.40;99.90
17200;DHT22;8716;52.268;20.968;2023-01-16T18:32:18;5.40;99.90
17200;DHT22;8716;52.268;20.968;2023-01-16T18:34:48;5.40;99.90
17200;DHT22;8716;52.268;20.968;2023-01-16T18:37:30;5.40;99.90
17200;DHT22;8716;52.268;20.968;2023-01-16T18:39:58;5.50;99.90
17200;DHT22;8716;52.268;20.968;2023-01-16T18:42:47;5.50;99.90
17200;DHT22;8716;52.268;20.968;2023-01-16T18:45:33;5.50;99.90
17200;DHT22;8716;52.268;20.968;2023-01-16T18:48:20;5.50;99.90
17200;DHT22;8716;52.268;20.968;2023-01-16T18:51:10;5.50;99.90
17200;DHT22;8716;52.268;20.968;2023-01-16T18:54:10;5.50;99.90
17200;DHT22;8716;52.268;20.968;2023-01-16T18:56:57;5.50;99.90
17200;DHT22;8716;52.268;20.968;2023-01-16T18:59:44;5.50;99.90
17200;DHT22;8716;52.268;20.968;2023-01-16T19:02:52;5.60;99.90
17200;DHT22;8716;52.268;20.968;2023-01-16T19:05:22;5.60;99.90
17200;DHT22;8716;52.268;20.968;2023-01-16T19:07:53;5.60;99.90
17200;DHT22;8716;52.268;20.968;2023-01-16T19:10:28;5.60;99.90
17200;DHT22;8716;52.268;20.968;2023-01-16T19:12:58;5.50;99.90
17200;DHT22;8716;52.268;20.968;2023-01-16T19:15:29;5.50;99.90
17200;DHT22;8716;52.268;20.968;2023-01-16T19:17:58;5.50;99.90
17200;DHT22;8716;52.268;20.968;2023-01-16T19:20:26;5.60;99.90